sensor_id;sensor_type;location;lat;lon;timestamp;P1;durP1;ratioP1;P2;durP2;ratioP2
8532;SDS011;4304;53.876;10.662;2022-10-13T00:00:29;5.25;;;2.13;;
8532;SDS011;4304;53.876;10.662;2022-10-13T00:02:58;9.18;;;2.25;;
8532;SDS011;4304;53.876;10.662;2022-10-13T00:05:24;4.13;;;1.75;;
8532;SDS011;4304;53.876;10.662;2022-10-13T00:07:49;7.50;;;2.47;;
8532;SDS011;4304;53.876;10.662;2022-10-13T00:10:14;9.18;;;2.88;;
8532;SDS011;4304;53.876;10.662;2022-10-13T00:12:39;4.95;;;2.10;;
8532;SDS011;4304;53.876;10.662;2022-10-13T00:15:05;5.45;;;2.30;;
8532;SDS011;4304;53.876;10.662;2022-10-13T00:17:31;9.48;;;2.17;;
8532;SDS011;4304;53.876;10.662;2022-10-13T00:19:57;12.32;;;2.60;;
8532;SDS011;4304;53.876;10.662;2022-10-13T00:22:22;5.47;;;2.22;;
8532;SDS011;4304;53.876;10.662;2022-10-13T00:24:51;3.92;;;2.13;;
8532;SDS011;4304;53.876;10.662;2022-10-13T00:27:16;3.28;;;1.67;;
8532;SDS011;4304;53.876;10.662;2022-10-13T00:29:42;6.25;;;2.30;;
8532;SDS011;4304;53.876;10.662;2022-10-13T00:32:07;5.53;;;1.98;;
8532;SDS011;4304;53.876;10.662;2022-10-13T00:34:32;7.97;;;2.28;;
8532;SDS011;4304;53.876;10.662;2022-10-13T00:36:58;4.18;;;2.10;;
8532;SDS011;4304;53.876;10.662;2022-10-13T00:39:23;4.07;;;2.05;;
8532;SDS011;4304;53.876;10.662;2022-10-13T00:41:48;8.95;;;2.38;;
8532;SDS011;4304;53.876;10.662;2022-10-13T00:47:16;6.43;;;1.98;;
8532;SDS011;4304;53.876;10.662;2022-10-13T00:49:43;7.60;;;2.20;;
8532;SDS011;4304;53.876;10.662;2022-10-13T00:52:08;4.45;;;2.10;;
8532;SDS011;4304;53.876;10.662;2022-10-13T00:54:34;8.38;;;2.20;;
8532;SDS011;4304;53.876;10.662;2022-10-13T00:56:59;5.30;;;1.77;;
8532;SDS011;4304;53.876;10.662;2022-10-13T00:59:27;5.28;;;1.98;;
8532;SDS011;4304;53.876;10.662;2022-10-13T01:01:53;6.70;;;1.65;;
8532;SDS011;4304;53.876;10.662;2022-10-13T01:04:20;7.68;;;2.55;;
8532;SDS011;4304;53.876;10.662;2022-10-13T01:09:17;3.28;;;1.63;;
8532;SDS011;4304;53.876;10.662;2022-10-13T01:17:36;5.05;;;1.98;;
8532;SDS011;4304;53.876;10.662;2022-10-13T01:25:47;3.28;;;1.80;;
8532;SDS011;4304;53.876;10.662;2022-10-13T01:31:11;3.30;;;1.90;;
8532;SDS011;4304;53.876;10.662;2022-10-13T01:33:48;7.20;;;2.20;;
8532;SDS011;4304;53.876;10.662;2022-10-13T01:36:30;4.43;;;1.80;;
8532;SDS011;4304;53.876;10.662;2022-10-13T01:41:52;4.25;;;2.00;;
8532;SDS011;4304;53.876;10.662;2022-10-13T01:44:34;4.55;;;2.10;;
8532;SDS011;4304;53.876;10.662;2022-10-13T01:47:04;8.10;;;2.40;;
8532;SDS011;4304;53.876;10.662;2022-10-13T01:49:32;3.80;;;1.60;;
8532;SDS011;4304;53.876;10.662;2022-10-13T01:52:05;6.35;;;2.35;;
8532;SDS011;4304;53.876;10.662;2022-10-13T01:54:39;4.38;;;1.90;;
8532;SDS011;4304;53.876;10.662;2022-10-13T01:57:24;9.68;;;2.17;;
8532;SDS011;4304;53.876;10.662;2022-10-13T01:59:58;4.25;;;2.10;;
8532;SDS011;4304;53.876;10.662;2022-10-13T02:02:27;7.20;;;2.03;;
8532;SDS011;4304;53.876;10.662;2022-10-13T02:07:54;3.45;;;2.08;;
8532;SDS011;4304;53.876;10.662;2022-10-13T02:13:27;5.78;;;2.28;;
8532;SDS011;4304;53.876;10.662;2022-10-13T02:15:54;3.60;;;1.63;;
8532;SDS011;4304;53.876;10.662;2022-10-13T02:18:24;8.32;;;2.38;;
8532;SDS011;4304;53.876;10.662;2022-10-13T02:20:55;6.30;;;2.20;;
8532;SDS011;4304;53.876;10.662;2022-10-13T02:23:21;8.15;;;2.42;;
8532;SDS011;4304;53.876;10.662;2022-10-13T02:25:46;3.92;;;2.20;;
8532;SDS011;4304;53.876;10.662;2022-10-13T02:28:12;7.78;;;2.40;;
8532;SDS011;4304;53.876;10.662;2022-10-13T02:30:38;7.60;;;2.17;;
8532;SDS011;4304;53.876;10.662;2022-10-13T02:33:04;6.85;;;2.33;;
8532;SDS011;4304;53.876;10.662;2022-10-13T02:35:29;9.48;;;2.28;;
8532;SDS011;4304;53.876;10.662;2022-10-13T02:37:55;5.60;;;2.08;;
8532;SDS011;4304;53.876;10.662;2022-10-13T02:40:20;5.10;;;2.13;;
8532;SDS011;4304;53.876;10.662;2022-10-13T02:42:45;4.18;;;2.28;;
8532;SDS011;4304;53.876;10.662;2022-10-13T02:45:10;3.92;;;2.13;;
8532;SDS011;4304;53.876;10.662;2022-10-13T02:47:36;10.27;;;2.38;;
8532;SDS011;4304;53.876;10.662;2022-10-13T02:50:03;8.68;;;2.35;;
8532;SDS011;4304;53.876;10.662;2022-10-13T02:52:28;2.83;;;1.80;;
8532;SDS011;4304;53.876;10.662;2022-10-13T02:54:53;5.53;;;2.00;;
8532;SDS011;4304;53.876;10.662;2022-10-13T02:57:19;6.03;;;2.30;;
8532;SDS011;4304;53.876;10.662;2022-10-13T02:59:44;7.07;;;2.50;;
8532;SDS011;4304;53.876;10.662;2022-10-13T03:02:09;4.35;;;2.10;;
8532;SDS011;4304;53.876;10.662;2022-10-13T03:04:34;7.18;;;2.10;;
8532;SDS011;4304;53.876;10.662;2022-10-13T03:06:59;3.90;;;2.00;;
8532;SDS011;4304;53.876;10.662;2022-10-13T03:09:25;7.15;;;2.20;;
8532;SDS011;4304;53.876;10.662;2022-10-13T03:11:50;5.00;;;2.50;;
8532;SDS011;4304;53.876;10.662;2022-10-13T03:14:15;4.40;;;2.42;;
8532;SDS011;4304;53.876;10.662;2022-10-13T03:16:40;7.32;;;2.40;;
8532;SDS011;4304;53.876;10.662;2022-10-13T03:19:05;3.05;;;2.00;;
8532;SDS011;4304;53.876;10.662;2022-10-13T03:21:31;7.22;;;2.42;;
8532;SDS011;4304;53.876;10.662;2022-10-13T03:23:56;7.50;;;2.63;;
8532;SDS011;4304;53.876;10.662;2022-10-13T03:26:21;4.30;;;2.08;;
8532;SDS011;4304;53.876;10.662;2022-10-13T03:28:50;4.00;;;2.15;;
8532;SDS011;4304;53.876;10.662;2022-10-13T03:31:15;4.53;;;2.50;;
8532;SDS011;4304;53.876;10.662;2022-10-13T03:33:42;4.45;;;2.17;;
8532;SDS011;4304;53.876;10.662;2022-10-13T03:36:08;6.95;;;2.22;;
8532;SDS011;4304;53.876;10.662;2022-10-13T03:38:34;9.80;;;2.50;;
8532;SDS011;4304;53.876;10.662;2022-10-13T03:41:10;6.50;;;2.28;;
8532;SDS011;4304;53.876;10.662;2022-10-13T03:43:37;11.10;;;2.42;;
8532;SDS011;4304;53.876;10.662;2022-10-13T03:46:04;6.25;;;1.98;;
8532;SDS011;4304;53.876;10.662;2022-10-13T03:48:30;6.28;;;2.40;;
8532;SDS011;4304;53.876;10.662;2022-10-13T03:50:56;5.63;;;2.70;;
8532;SDS011;4304;53.876;10.662;2022-10-13T03:53:21;8.20;;;2.25;;
8532;SDS011;4304;53.876;10.662;2022-10-13T03:55:47;3.97;;;2.30;;
8532;SDS011;4304;53.876;10.662;2022-10-13T03:58:20;7.05;;;2.72;;
8532;SDS011;4304;53.876;10.662;2022-10-13T04:00:48;4.47;;;2.13;;
8532;SDS011;4304;53.876;10.662;2022-10-13T04:03:14;4.30;;;2.50;;
8532;SDS011;4304;53.876;10.662;2022-10-13T04:05:40;7.32;;;2.95;;
8532;SDS011;4304;53.876;10.662;2022-10-13T04:08:06;5.97;;;2.35;;
8532;SDS011;4304;53.876;10.662;2022-10-13T04:10:31;7.35;;;2.60;;
8532;SDS011;4304;53.876;10.662;2022-10-13T04:12:56;5.60;;;2.60;;
8532;SDS011;4304;53.876;10.662;2022-10-13T04:15:22;4.65;;;2.58;;
8532;SDS011;4304;53.876;10.662;2022-10-13T04:17:47;4.30;;;2.85;;
8532;SDS011;4304;53.876;10.662;2022-10-13T04:20:12;9.73;;;3.03;;
8532;SDS011;4304;53.876;10.662;2022-10-13T04:22:37;6.80;;;2.55;;
8532;SDS011;4304;53.876;10.662;2022-10-13T04:25:03;5.20;;;2.83;;
8532;SDS011;4304;53.876;10.662;2022-10-13T04:27:29;5.40;;;2.53;;
8532;SDS011;4304;53.876;10.662;2022-10-13T04:29:55;7.25;;;3.03;;
8532;SDS011;4304;53.876;10.662;2022-10-13T04:32:20;5.30;;;2.63;;
8532;SDS011;4304;53.876;10.662;2022-10-13T04:34:45;5.07;;;3.05;;
8532;SDS011;4304;53.876;10.662;2022-10-13T04:37:11;6.88;;;2.72;;
8532;SDS011;4304;53.876;10.662;2022-10-13T04:39:36;4.50;;;2.75;;
8532;SDS011;4304;53.876;10.662;2022-10-13T04:42:01;10.18;;;3.00;;
8532;SDS011;4304;53.876;10.662;2022-10-13T04:44:26;4.45;;;2.80;;
8532;SDS011;4304;53.876;10.662;2022-10-13T04:46:52;4.53;;;2.80;;
8532;SDS011;4304;53.876;10.662;2022-10-13T04:49:17;9.75;;;3.05;;
8532;SDS011;4304;53.876;10.662;2022-10-13T04:51:42;10.45;;;2.92;;
8532;SDS011;4304;53.876;10.662;2022-10-13T04:54:07;5.90;;;3.13;;
8532;SDS011;4304;53.876;10.662;2022-10-13T04:56:33;6.32;;;3.10;;
8532;SDS011;4304;53.876;10.662;2022-10-13T04:58:58;10.23;;;3.15;;
8532;SDS011;4304;53.876;10.662;2022-10-13T05:01:23;4.95;;;3.00;;
8532;SDS011;4304;53.876;10.662;2022-10-13T05:03:50;5.50;;;2.80;;
8532;SDS011;4304;53.876;10.662;2022-10-13T05:06:17;4.05;;;2.45;;
8532;SDS011;4304;53.876;10.662;2022-10-13T05:08:45;4.80;;;2.50;;
8532;SDS011;4304;53.876;10.662;2022-10-13T05:11:11;8.48;;;2.92;;
8532;SDS011;4304;53.876;10.662;2022-10-13T05:13:36;6.45;;;2.67;;
8532;SDS011;4304;53.876;10.662;2022-10-13T05:16:05;6.18;;;2.58;;
8532;SDS011;4304;53.876;10.662;2022-10-13T05:18:35;6.13;;;2.85;;
8532;SDS011;4304;53.876;10.662;2022-10-13T05:23:40;8.38;;;3.63;;
8532;SDS011;4304;53.876;10.662;2022-10-13T05:26:09;11.35;;;3.30;;
8532;SDS011;4304;53.876;10.662;2022-10-13T05:28:37;10.93;;;3.20;;
8532;SDS011;4304;53.876;10.662;2022-10-13T05:31:12;8.70;;;3.40;;
8532;SDS011;4304;53.876;10.662;2022-10-13T05:33:43;7.13;;;3.67;;
8532;SDS011;4304;53.876;10.662;2022-10-13T05:36:10;5.00;;;2.80;;
8532;SDS011;4304;53.876;10.662;2022-10-13T05:38:37;10.48;;;3.35;;
8532;SDS011;4304;53.876;10.662;2022-10-13T05:41:03;8.93;;;3.85;;
8532;SDS011;4304;53.876;10.662;2022-10-13T05:43:38;12.63;;;3.47;;
8532;SDS011;4304;53.876;10.662;2022-10-13T05:46:04;5.40;;;2.95;;
8532;SDS011;4304;53.876;10.662;2022-10-13T05:48:36;5.60;;;3.25;;
8532;SDS011;4304;53.876;10.662;2022-10-13T05:51:02;10.43;;;3.47;;
8532;SDS011;4304;53.876;10.662;2022-10-13T05:53:33;9.68;;;3.85;;
8532;SDS011;4304;53.876;10.662;2022-10-13T05:56:03;8.57;;;3.80;;
8532;SDS011;4304;53.876;10.662;2022-10-13T05:58:36;6.28;;;3.28;;
8532;SDS011;4304;53.876;10.662;2022-10-13T06:01:05;14.80;;;3.58;;
8532;SDS011;4304;53.876;10.662;2022-10-13T06:03:34;11.77;;;3.42;;
8532;SDS011;4304;53.876;10.662;2022-10-13T06:05:59;7.75;;;3.47;;
8532;SDS011;4304;53.876;10.662;2022-10-13T06:08:25;8.85;;;4.07;;
8532;SDS011;4304;53.876;10.662;2022-10-13T06:10:50;4.80;;;3.10;;
8532;SDS011;4304;53.876;10.662;2022-10-13T06:13:16;10.98;;;4.05;;
8532;SDS011;4304;53.876;10.662;2022-10-13T06:15:41;11.00;;;3.70;;
8532;SDS011;4304;53.876;10.662;2022-10-13T06:18:07;7.45;;;4.00;;
8532;SDS011;4304;53.876;10.662;2022-10-13T06:20:33;13.02;;;3.95;;
8532;SDS011;4304;53.876;10.662;2022-10-13T06:22:58;6.43;;;3.53;;
8532;SDS011;4304;53.876;10.662;2022-10-13T06:25:24;6.22;;;4.03;;
8532;SDS011;4304;53.876;10.662;2022-10-13T06:27:49;10.38;;;3.80;;
8532;SDS011;4304;53.876;10.662;2022-10-13T06:30:14;17.38;;;4.60;;
8532;SDS011;4304;53.876;10.662;2022-10-13T06:32:39;7.35;;;3.30;;
8532;SDS011;4304;53.876;10.662;2022-10-13T06:35:05;6.82;;;3.55;;
8532;SDS011;4304;53.876;10.662;2022-10-13T06:37:30;10.10;;;4.10;;
8532;SDS011;4304;53.876;10.662;2022-10-13T06:39:56;6.18;;;3.65;;
8532;SDS011;4304;53.876;10.662;2022-10-13T06:42:21;7.75;;;3.85;;
8532;SDS011;4304;53.876;10.662;2022-10-13T06:44:46;8.68;;;4.20;;
8532;SDS011;4304;53.876;10.662;2022-10-13T06:47:11;13.20;;;4.07;;
8532;SDS011;4304;53.876;10.662;2022-10-13T06:49:37;9.93;;;4.22;;
8532;SDS011;4304;53.876;10.662;2022-10-13T06:52:03;5.55;;;3.50;;
8532;SDS011;4304;53.876;10.662;2022-10-13T06:54:28;10.20;;;4.20;;
8532;SDS011;4304;53.876;10.662;2022-10-13T06:56:53;7.05;;;3.70;;
8532;SDS011;4304;53.876;10.662;2022-10-13T06:59:18;9.50;;;3.72;;
8532;SDS011;4304;53.876;10.662;2022-10-13T07:01:44;5.38;;;3.85;;
8532;SDS011;4304;53.876;10.662;2022-10-13T07:04:09;9.98;;;4.22;;
8532;SDS011;4304;53.876;10.662;2022-10-13T07:06:34;9.40;;;4.32;;
8532;SDS011;4304;53.876;10.662;2022-10-13T07:09:06;10.00;;;4.20;;
8532;SDS011;4304;53.876;10.662;2022-10-13T07:11:31;9.95;;;4.28;;
8532;SDS011;4304;53.876;10.662;2022-10-13T07:13:57;7.65;;;3.88;;
8532;SDS011;4304;53.876;10.662;2022-10-13T07:16:22;10.82;;;4.30;;
8532;SDS011;4304;53.876;10.662;2022-10-13T07:18:47;10.85;;;4.63;;
8532;SDS011;4304;53.876;10.662;2022-10-13T07:21:13;10.30;;;4.50;;
8532;SDS011;4304;53.876;10.662;2022-10-13T07:23:38;10.93;;;4.68;;
8532;SDS011;4304;53.876;10.662;2022-10-13T07:26:10;6.82;;;4.10;;
8532;SDS011;4304;53.876;10.662;2022-10-13T07:28:37;9.07;;;4.53;;
8532;SDS011;4304;53.876;10.662;2022-10-13T07:31:07;8.48;;;3.95;;
8532;SDS011;4304;53.876;10.662;2022-10-13T07:33:37;10.95;;;4.13;;
8532;SDS011;4304;53.876;10.662;2022-10-13T07:36:02;6.75;;;3.70;;
8532;SDS011;4304;53.876;10.662;2022-10-13T07:38:28;9.27;;;4.07;;
8532;SDS011;4304;53.876;10.662;2022-10-13T07:40:54;6.72;;;4.25;;
8532;SDS011;4304;53.876;10.662;2022-10-13T07:43:19;8.57;;;3.97;;
8532;SDS011;4304;53.876;10.662;2022-10-13T07:45:46;6.85;;;4.00;;
8532;SDS011;4304;53.876;10.662;2022-10-13T07:48:12;8.70;;;4.25;;
8532;SDS011;4304;53.876;10.662;2022-10-13T07:50:38;8.93;;;3.95;;
8532;SDS011;4304;53.876;10.662;2022-10-13T07:53:03;8.77;;;4.25;;
8532;SDS011;4304;53.876;10.662;2022-10-13T07:55:28;8.80;;;3.83;;
8532;SDS011;4304;53.876;10.662;2022-10-13T07:57:54;6.93;;;4.00;;
8532;SDS011;4304;53.876;10.662;2022-10-13T08:00:19;10.18;;;4.53;;
8532;SDS011;4304;53.876;10.662;2022-10-13T08:02:48;9.50;;;4.00;;
8532;SDS011;4304;53.876;10.662;2022-10-13T08:05:13;9.20;;;4.03;;
8532;SDS011;4304;53.876;10.662;2022-10-13T08:07:39;9.52;;;4.40;;
8532;SDS011;4304;53.876;10.662;2022-10-13T08:10:04;11.75;;;4.28;;
8532;SDS011;4304;53.876;10.662;2022-10-13T08:12:30;9.00;;;4.88;;
8532;SDS011;4304;53.876;10.662;2022-10-13T08:14:55;8.52;;;4.30;;
8532;SDS011;4304;53.876;10.662;2022-10-13T08:17:21;10.02;;;5.03;;
8532;SDS011;4304;53.876;10.662;2022-10-13T08:19:46;11.35;;;4.63;;
8532;SDS011;4304;53.876;10.662;2022-10-13T08:22:11;9.95;;;4.80;;
8532;SDS011;4304;53.876;10.662;2022-10-13T08:24:36;10.05;;;4.90;;
8532;SDS011;4304;53.876;10.662;2022-10-13T08:27:02;12.90;;;5.28;;
8532;SDS011;4304;53.876;10.662;2022-10-13T08:29:28;7.05;;;4.55;;
8532;SDS011;4304;53.876;10.662;2022-10-13T08:31:54;8.10;;;4.50;;
8532;SDS011;4304;53.876;10.662;2022-10-13T08:34:20;12.27;;;4.72;;
8532;SDS011;4304;53.876;10.662;2022-10-13T08:36:46;15.18;;;4.93;;
8532;SDS011;4304;53.876;10.662;2022-10-13T08:39:12;10.77;;;4.80;;
8532;SDS011;4304;53.876;10.662;2022-10-13T08:41:39;11.23;;;4.97;;
8532;SDS011;4304;53.876;10.662;2022-10-13T08:44:08;8.23;;;5.03;;
8532;SDS011;4304;53.876;10.662;2022-10-13T08:46:41;14.48;;;4.97;;
8532;SDS011;4304;53.876;10.662;2022-10-13T08:49:23;10.50;;;4.97;;
8532;SDS011;4304;53.876;10.662;2022-10-13T08:51:49;12.23;;;5.68;;
8532;SDS011;4304;53.876;10.662;2022-10-13T08:54:14;12.45;;;5.68;;
8532;SDS011;4304;53.876;10.662;2022-10-13T08:56:43;9.68;;;5.47;;
8532;SDS011;4304;53.876;10.662;2022-10-13T08:59:09;14.38;;;5.05;;
8532;SDS011;4304;53.876;10.662;2022-10-13T09:01:39;12.68;;;5.10;;
8532;SDS011;4304;53.876;10.662;2022-10-13T09:04:16;8.02;;;4.60;;
8532;SDS011;4304;53.876;10.662;2022-10-13T09:09:22;11.50;;;5.53;;
8532;SDS011;4304;53.876;10.662;2022-10-13T09:11:48;11.32;;;4.93;;
8532;SDS011;4304;53.876;10.662;2022-10-13T09:14:28;11.00;;;5.10;;
8532;SDS011;4304;53.876;10.662;2022-10-13T09:16:56;12.60;;;5.07;;
8532;SDS011;4304;53.876;10.662;2022-10-13T09:19:36;12.77;;;4.80;;
8532;SDS011;4304;53.876;10.662;2022-10-13T09:25:14;6.95;;;4.25;;
8532;SDS011;4304;53.876;10.662;2022-10-13T09:27:43;9.82;;;4.88;;
8532;SDS011;4304;53.876;10.662;2022-10-13T09:35:32;14.23;;;5.85;;
8532;SDS011;4304;53.876;10.662;2022-10-13T09:38:14;10.80;;;5.25;;
8532;SDS011;4304;53.876;10.662;2022-10-13T09:40:41;9.32;;;4.55;;
8532;SDS011;4304;53.876;10.662;2022-10-13T09:43:18;13.20;;;5.40;;
8532;SDS011;4304;53.876;10.662;2022-10-13T09:45:52;14.70;;;5.65;;
8532;SDS011;4304;53.876;10.662;2022-10-13T09:48:21;7.93;;;5.20;;
8532;SDS011;4304;53.876;10.662;2022-10-13T09:50:51;13.55;;;5.43;;
8532;SDS011;4304;53.876;10.662;2022-10-13T09:58:49;11.63;;;5.07;;
8532;SDS011;4304;53.876;10.662;2022-10-13T10:01:24;9.20;;;4.97;;
8532;SDS011;4304;53.876;10.662;2022-10-13T10:03:54;13.45;;;5.70;;
8532;SDS011;4304;53.876;10.662;2022-10-13T10:06:21;13.32;;;5.45;;
8532;SDS011;4304;53.876;10.662;2022-10-13T10:08:57;10.95;;;5.88;;
8532;SDS011;4304;53.876;10.662;2022-10-13T10:11:28;11.15;;;5.63;;
8532;SDS011;4304;53.876;10.662;2022-10-13T10:13:57;10.48;;;5.68;;
8532;SDS011;4304;53.876;10.662;2022-10-13T10:16:34;11.95;;;6.18;;
8532;SDS011;4304;53.876;10.662;2022-10-13T10:19:17;16.20;;;6.13;;
8532;SDS011;4304;53.876;10.662;2022-10-13T10:21:47;9.57;;;6.00;;
8532;SDS011;4304;53.876;10.662;2022-10-13T10:24:23;9.90;;;5.40;;
8532;SDS011;4304;53.876;10.662;2022-10-13T10:27:00;10.68;;;6.20;;
8532;SDS011;4304;53.876;10.662;2022-10-13T10:32:17;13.50;;;6.10;;
8532;SDS011;4304;53.876;10.662;2022-10-13T10:45:55;11.55;;;6.55;;
8532;SDS011;4304;53.876;10.662;2022-10-13T10:48:26;15.55;;;6.80;;
8532;SDS011;4304;53.876;10.662;2022-10-13T10:51:08;14.82;;;6.55;;
8532;SDS011;4304;53.876;10.662;2022-10-13T10:53:44;17.15;;;7.03;;
8532;SDS011;4304;53.876;10.662;2022-10-13T10:56:35;13.60;;;6.72;;
8532;SDS011;4304;53.876;10.662;2022-10-13T11:01:38;13.43;;;5.75;;
8532;SDS011;4304;53.876;10.662;2022-10-13T11:06:50;11.50;;;6.22;;
8532;SDS011;4304;53.876;10.662;2022-10-13T11:09:17;13.70;;;6.88;;
8532;SDS011;4304;53.876;10.662;2022-10-13T11:19:54;12.77;;;6.22;;
8532;SDS011;4304;53.876;10.662;2022-10-13T11:22:20;12.98;;;5.97;;
8532;SDS011;4304;53.876;10.662;2022-10-13T11:30:46;14.80;;;6.85;;
8532;SDS011;4304;53.876;10.662;2022-10-13T11:41:52;11.23;;;6.13;;
8532;SDS011;4304;53.876;10.662;2022-10-13T11:44:30;12.75;;;6.47;;
8532;SDS011;4304;53.876;10.662;2022-10-13T11:47:20;11.40;;;5.38;;
8532;SDS011;4304;53.876;10.662;2022-10-13T11:52:24;11.82;;;6.10;;
8532;SDS011;4304;53.876;10.662;2022-10-13T11:55:17;10.93;;;5.80;;
8532;SDS011;4304;53.876;10.662;2022-10-13T11:57:47;11.02;;;5.82;;
8532;SDS011;4304;53.876;10.662;2022-10-13T12:00:14;18.95;;;5.78;;
8532;SDS011;4304;53.876;10.662;2022-10-13T12:02:51;11.07;;;6.15;;
8532;SDS011;4304;53.876;10.662;2022-10-13T12:07:49;10.82;;;5.45;;
8532;SDS011;4304;53.876;10.662;2022-10-13T12:13:03;12.60;;;5.18;;
8532;SDS011;4304;53.876;10.662;2022-10-13T12:15:37;10.73;;;5.05;;
8532;SDS011;4304;53.876;10.662;2022-10-13T12:21:13;10.15;;;5.10;;
8532;SDS011;4304;53.876;10.662;2022-10-13T12:23:41;8.95;;;5.05;;
8532;SDS011;4304;53.876;10.662;2022-10-13T12:26:11;11.23;;;5.15;;
8532;SDS011;4304;53.876;10.662;2022-10-13T12:31:44;10.55;;;4.78;;
8532;SDS011;4304;53.876;10.662;2022-10-13T12:36:45;10.43;;;4.70;;
8532;SDS011;4304;53.876;10.662;2022-10-13T12:39:16;8.40;;;4.65;;
8532;SDS011;4304;53.876;10.662;2022-10-13T12:41:44;11.40;;;4.63;;
8532;SDS011;4304;53.876;10.662;2022-10-13T12:44:15;9.50;;;5.10;;
8532;SDS011;4304;53.876;10.662;2022-10-13T12:50:18;14.30;;;5.00;;
8532;SDS011;4304;53.876;10.662;2022-10-13T12:52:55;13.77;;;5.25;;
8532;SDS011;4304;53.876;10.662;2022-10-13T12:55:25;10.60;;;4.78;;
8532;SDS011;4304;53.876;10.662;2022-10-13T12:57:52;10.65;;;4.70;;
8532;SDS011;4304;53.876;10.662;2022-10-13T13:00:23;11.95;;;4.55;;
8532;SDS011;4304;53.876;10.662;2022-10-13T13:02:51;10.00;;;4.80;;
8532;SDS011;4304;53.876;10.662;2022-10-13T13:05:38;14.38;;;5.15;;
8532;SDS011;4304;53.876;10.662;2022-10-13T13:08:23;8.45;;;4.68;;
8532;SDS011;4304;53.876;10.662;2022-10-13T13:10:59;10.25;;;4.97;;
8532;SDS011;4304;53.876;10.662;2022-10-13T13:13:29;11.65;;;5.38;;
8532;SDS011;4304;53.876;10.662;2022-10-13T13:18:55;10.27;;;4.93;;
8532;SDS011;4304;53.876;10.662;2022-10-13T13:21:27;12.65;;;5.20;;
8532;SDS011;4304;53.876;10.662;2022-10-13T13:23:53;10.65;;;4.88;;
8532;SDS011;4304;53.876;10.662;2022-10-13T13:26:21;11.70;;;4.70;;
8532;SDS011;4304;53.876;10.662;2022-10-13T13:28:48;14.88;;;5.13;;
8532;SDS011;4304;53.876;10.662;2022-10-13T13:31:19;8.88;;;4.30;;
8532;SDS011;4304;53.876;10.662;2022-10-13T13:33:48;12.02;;;4.35;;
8532;SDS011;4304;53.876;10.662;2022-10-13T13:36:14;9.55;;;4.50;;
8532;SDS011;4304;53.876;10.662;2022-10-13T13:38:53;12.93;;;5.30;;
8532;SDS011;4304;53.876;10.662;2022-10-13T13:41:18;10.77;;;5.05;;
8532;SDS011;4304;53.876;10.662;2022-10-13T13:43:44;11.57;;;4.60;;
8532;SDS011;4304;53.876;10.662;2022-10-13T13:46:20;11.05;;;4.88;;
8532;SDS011;4304;53.876;10.662;2022-10-13T13:48:47;9.38;;;4.28;;
8532;SDS011;4304;53.876;10.662;2022-10-13T13:51:15;10.48;;;5.30;;
8532;SDS011;4304;53.876;10.662;2022-10-13T13:56:23;9.13;;;4.80;;
8532;SDS011;4304;53.876;10.662;2022-10-13T13:58:48;7.53;;;4.68;;
8532;SDS011;4304;53.876;10.662;2022-10-13T14:01:17;9.02;;;5.40;;
8532;SDS011;4304;53.876;10.662;2022-10-13T14:03:42;8.63;;;5.07;;
8532;SDS011;4304;53.876;10.662;2022-10-13T14:06:07;9.77;;;5.40;;
8532;SDS011;4304;53.876;10.662;2022-10-13T14:08:33;8.45;;;5.05;;
8532;SDS011;4304;53.876;10.662;2022-10-13T14:10:59;9.00;;;5.00;;
8532;SDS011;4304;53.876;10.662;2022-10-13T14:13:29;11.45;;;5.07;;
8532;SDS011;4304;53.876;10.662;2022-10-13T14:15:57;11.88;;;6.38;;
8532;SDS011;4304;53.876;10.662;2022-10-13T14:18:25;13.98;;;6.38;;
8532;SDS011;4304;53.876;10.662;2022-10-13T14:20:50;9.52;;;5.15;;
8532;SDS011;4304;53.876;10.662;2022-10-13T14:23:15;10.52;;;4.55;;
8532;SDS011;4304;53.876;10.662;2022-10-13T14:25:41;9.95;;;5.20;;
8532;SDS011;4304;53.876;10.662;2022-10-13T14:28:06;10.35;;;4.68;;
8532;SDS011;4304;53.876;10.662;2022-10-13T14:30:32;10.52;;;5.38;;
8532;SDS011;4304;53.876;10.662;2022-10-13T14:32:57;11.70;;;4.72;;
8532;SDS011;4304;53.876;10.662;2022-10-13T14:35:22;7.95;;;5.45;;
8532;SDS011;4304;53.876;10.662;2022-10-13T14:37:48;11.65;;;5.10;;
8532;SDS011;4304;53.876;10.662;2022-10-13T14:40:13;12.98;;;6.95;;
8532;SDS011;4304;53.876;10.662;2022-10-13T14:42:38;8.50;;;5.30;;
8532;SDS011;4304;53.876;10.662;2022-10-13T14:45:04;11.32;;;5.60;;
8532;SDS011;4304;53.876;10.662;2022-10-13T14:47:37;10.27;;;4.60;;
8532;SDS011;4304;53.876;10.662;2022-10-13T14:50:02;9.13;;;5.85;;
8532;SDS011;4304;53.876;10.662;2022-10-13T14:52:28;10.32;;;5.18;;
8532;SDS011;4304;53.876;10.662;2022-10-13T14:54:53;20.30;;;9.23;;
8532;SDS011;4304;53.876;10.662;2022-10-13T14:57:23;20.60;;;7.90;;
8532;SDS011;4304;53.876;10.662;2022-10-13T14:59:48;9.95;;;5.43;;
8532;SDS011;4304;53.876;10.662;2022-10-13T15:02:19;10.75;;;5.68;;
8532;SDS011;4304;53.876;10.662;2022-10-13T15:04:44;8.48;;;5.22;;
8532;SDS011;4304;53.876;10.662;2022-10-13T15:07:09;10.32;;;5.20;;
8532;SDS011;4304;53.876;10.662;2022-10-13T15:09:47;12.73;;;5.07;;
8532;SDS011;4304;53.876;10.662;2022-10-13T15:12:12;11.60;;;6.22;;
8532;SDS011;4304;53.876;10.662;2022-10-13T15:14:37;10.77;;;5.45;;
8532;SDS011;4304;53.876;10.662;2022-10-13T15:17:21;9.50;;;4.53;;
8532;SDS011;4304;53.876;10.662;2022-10-13T15:19:46;7.88;;;4.70;;
8532;SDS011;4304;53.876;10.662;2022-10-13T15:22:13;7.55;;;4.10;;
8532;SDS011;4304;53.876;10.662;2022-10-13T15:24:38;10.27;;;5.38;;
8532;SDS011;4304;53.876;10.662;2022-10-13T15:27:03;10.88;;;5.25;;
8532;SDS011;4304;53.876;10.662;2022-10-13T15:29:28;7.88;;;5.22;;
8532;SDS011;4304;53.876;10.662;2022-10-13T15:31:56;8.52;;;4.70;;
8532;SDS011;4304;53.876;10.662;2022-10-13T15:34:32;6.60;;;4.20;;
8532;SDS011;4304;53.876;10.662;2022-10-13T15:36:57;10.00;;;4.57;;
8532;SDS011;4304;53.876;10.662;2022-10-13T15:39:22;8.73;;;5.00;;
8532;SDS011;4304;53.876;10.662;2022-10-13T15:41:48;8.35;;;5.10;;
8532;SDS011;4304;53.876;10.662;2022-10-13T15:44:13;7.93;;;4.38;;
8532;SDS011;4304;53.876;10.662;2022-10-13T15:46:38;11.35;;;5.35;;
8532;SDS011;4304;53.876;10.662;2022-10-13T15:49:03;15.20;;;6.03;;
8532;SDS011;4304;53.876;10.662;2022-10-13T15:51:28;14.45;;;5.68;;
8532;SDS011;4304;53.876;10.662;2022-10-13T15:53:54;8.98;;;5.65;;
8532;SDS011;4304;53.876;10.662;2022-10-13T15:59:19;10.15;;;5.28;;
8532;SDS011;4304;53.876;10.662;2022-10-13T16:01:44;8.75;;;5.45;;
8532;SDS011;4304;53.876;10.662;2022-10-13T16:04:09;7.28;;;5.00;;
8532;SDS011;4304;53.876;10.662;2022-10-13T16:06:35;11.23;;;5.70;;
8532;SDS011;4304;53.876;10.662;2022-10-13T16:09:00;12.30;;;4.88;;
8532;SDS011;4304;53.876;10.662;2022-10-13T16:11:25;10.23;;;4.82;;
8532;SDS011;4304;53.876;10.662;2022-10-13T16:13:51;10.07;;;4.80;;
8532;SDS011;4304;53.876;10.662;2022-10-13T16:18:46;11.63;;;4.97;;
8532;SDS011;4304;53.876;10.662;2022-10-13T16:21:16;9.18;;;5.10;;
8532;SDS011;4304;53.876;10.662;2022-10-13T16:23:47;8.85;;;5.00;;
8532;SDS011;4304;53.876;10.662;2022-10-13T16:26:12;10.10;;;5.13;;
8532;SDS011;4304;53.876;10.662;2022-10-13T16:28:38;14.23;;;5.53;;
8532;SDS011;4304;53.876;10.662;2022-10-13T16:31:04;12.90;;;5.75;;
8532;SDS011;4304;53.876;10.662;2022-10-13T16:33:34;12.30;;;5.90;;
8532;SDS011;4304;53.876;10.662;2022-10-13T16:36:04;10.50;;;5.55;;
8532;SDS011;4304;53.876;10.662;2022-10-13T16:38:33;11.02;;;5.82;;
8532;SDS011;4304;53.876;10.662;2022-10-13T16:41:05;14.23;;;6.10;;
8532;SDS011;4304;53.876;10.662;2022-10-13T16:43:32;13.55;;;6.20;;
8532;SDS011;4304;53.876;10.662;2022-10-13T16:45:59;15.07;;;6.13;;
8532;SDS011;4304;53.876;10.662;2022-10-13T16:48:25;15.88;;;6.80;;
8532;SDS011;4304;53.876;10.662;2022-10-13T16:50:51;14.10;;;5.85;;
8532;SDS011;4304;53.876;10.662;2022-10-13T16:53:16;10.13;;;5.68;;
8532;SDS011;4304;53.876;10.662;2022-10-13T16:58:29;12.18;;;5.63;;
8532;SDS011;4304;53.876;10.662;2022-10-13T17:01:05;11.00;;;5.63;;
8532;SDS011;4304;53.876;10.662;2022-10-13T17:03:32;8.65;;;5.28;;